Webcam Richtung Westen

Webcam27

Webcam Richtung Norden

Webcam36

Webcam Richtung Osten

Webcam09

Wetter(Würzburg):
241000Z AUTO 11007G11KT 71KM OVC017 04/01 Q1035
		
Mon 24.01.2022, 10:00 UTC

Sichtweite bis zu 71 km
Wind aus 110° mit 07kt, in Böen bis zu 11kt
bedeckter Himmel (8 Achtel) bei 1700 Fuß
Temperatur: 4 °C
Taupunkt: 1 °C
QNH: 1035 hPa
                         Heute        Morgen
                         24.01        25.01
--------------------------------------------
Beginn der Dämmerung     06:28        06:27
Sonnenaufgang            07:04        07:03
Sonnenuntergang          16:00        16:02
Ende der Dämmerung       16:36        16:38

Alle Zeiten in UTC